createdAt,value
2019-02-19T00:00:15.966Z,970.55
2019-02-19T00:01:15.952Z,970.55
2019-02-19T00:02:15.949Z,970.50
2019-02-19T00:03:15.932Z,970.58
2019-02-19T00:04:15.954Z,970.57
2019-02-19T00:05:15.907Z,970.54
2019-02-19T00:06:15.935Z,970.54
2019-02-19T00:07:15.893Z,970.58
2019-02-19T00:08:15.885Z,970.57
2019-02-19T00:09:15.879Z,970.56
2019-02-19T00:10:15.856Z,970.52
2019-02-19T00:11:15.860Z,970.48
2019-02-19T00:12:15.862Z,970.57
2019-02-19T00:13:15.817Z,970.53
2019-02-19T00:14:15.721Z,970.50
2019-02-19T00:15:15.802Z,970.59
2019-02-19T00:16:15.806Z,970.55
2019-02-19T00:17:15.815Z,970.58
2019-02-19T00:18:15.771Z,970.59
2019-02-19T00:19:15.763Z,970.55
2019-02-19T00:20:15.745Z,970.54
2019-02-19T00:21:15.732Z,970.60
2019-02-19T00:22:15.716Z,970.59
2019-02-19T00:23:15.748Z,970.56
2019-02-19T00:24:15.704Z,970.59
2019-02-19T00:25:15.693Z,970.59
2019-02-19T00:26:15.692Z,970.55
2019-02-19T00:27:15.677Z,970.56
2019-02-19T00:28:15.669Z,970.59
2019-02-19T00:29:15.576Z,970.56
2019-02-19T00:30:15.633Z,970.61
2019-02-19T00:31:15.622Z,970.55
2019-02-19T00:32:15.619Z,970.57
2019-02-19T00:33:15.637Z,970.51
2019-02-19T00:34:15.591Z,970.53
2019-02-19T00:35:15.578Z,970.56
2019-02-19T00:36:15.577Z,970.52
2019-02-19T00:37:15.566Z,970.60
2019-02-19T00:38:15.585Z,970.60
2019-02-19T00:39:15.536Z,970.56
2019-02-19T00:40:15.512Z,970.54
2019-02-19T00:41:15.510Z,970.54
2019-02-19T00:42:15.512Z,970.53
2019-02-19T00:43:15.495Z,970.60
2019-02-19T00:44:15.524Z,970.59
2019-02-19T00:45:16.926Z,970.54
2019-02-19T00:46:15.364Z,970.57
2019-02-19T00:47:15.448Z,970.61
2019-02-19T00:48:15.474Z,970.57
2019-02-19T00:49:15.432Z,970.59
2019-02-19T00:50:15.472Z,970.60
2019-02-19T00:51:15.398Z,970.61
2019-02-19T00:52:15.392Z,970.64
2019-02-19T00:53:15.383Z,970.66
2019-02-19T00:54:15.378Z,970.61
2019-02-19T00:55:15.366Z,970.59
2019-02-19T00:56:15.385Z,970.67
2019-02-19T00:57:15.350Z,970.64
2019-02-19T00:58:15.334Z,970.69
2019-02-19T00:59:15.317Z,970.66
2019-02-19T01:00:15.209Z,970.67
2019-02-19T01:01:15.325Z,970.65
2019-02-19T01:02:15.287Z,970.62
2019-02-19T01:03:15.273Z,970.67
2019-02-19T01:04:15.167Z,970.69
2019-02-19T01:05:15.259Z,970.73
2019-02-19T01:06:15.279Z,970.72
2019-02-19T01:07:15.232Z,970.70
2019-02-19T01:08:15.266Z,970.75
2019-02-19T01:09:15.213Z,970.68
2019-02-19T01:10:15.200Z,970.73
2019-02-19T01:11:15.178Z,970.66
2019-02-19T01:12:15.214Z,970.70
2019-02-19T01:13:15.165Z,970.75
2019-02-19T01:14:15.061Z,970.70
2019-02-19T01:15:15.148Z,970.66
2019-02-19T01:16:15.129Z,970.66
2019-02-19T01:17:15.145Z,970.66
2019-02-19T01:18:15.111Z,970.64
2019-02-19T01:19:15.105Z,970.63
2019-02-19T01:20:15.086Z,970.73
2019-02-19T01:21:15.075Z,970.66
2019-02-19T01:22:15.104Z,970.66
2019-02-19T01:23:15.054Z,970.62
2019-02-19T01:24:15.043Z,970.60
2019-02-19T01:25:15.041Z,970.61
2019-02-19T01:26:15.038Z,970.63
2019-02-19T01:27:15.013Z,970.67
2019-02-19T01:28:14.935Z,970.61
2019-02-19T01:29:15.000Z,970.68
2019-02-19T01:30:14.981Z,970.71
2019-02-19T01:31:14.965Z,970.65
2019-02-19T01:32:14.962Z,970.65
2019-02-19T01:33:14.950Z,970.67
2019-02-19T01:34:14.970Z,970.64
2019-02-19T01:35:14.833Z,970.66
2019-02-19T01:36:14.934Z,970.63
2019-02-19T01:37:14.902Z,970.64
2019-02-19T01:38:14.922Z,970.66
2019-02-19T01:39:14.883Z,970.66
2019-02-19T01:40:14.941Z,970.69
2019-02-19T01:41:14.851Z,970.66
2019-02-19T01:42:14.864Z,970.68
2019-02-19T01:43:14.836Z,970.67
2019-02-19T01:44:14.711Z,970.68
2019-02-19T01:45:14.806Z,970.68
2019-02-19T01:46:14.847Z,970.74
2019-02-19T01:47:14.791Z,970.69
2019-02-19T01:48:14.775Z,970.69
2019-02-19T01:49:14.809Z,970.75
2019-02-19T01:50:14.803Z,970.75
2019-02-19T01:51:14.763Z,970.69
2019-02-19T01:52:14.775Z,970.68
2019-02-19T01:53:14.724Z,970.66
2019-02-19T01:54:14.728Z,970.67
2019-02-19T01:55:14.711Z,970.68
2019-02-19T01:56:14.695Z,970.67
2019-02-19T01:57:14.689Z,970.62
2019-02-19T01:58:14.711Z,970.64
2019-02-19T01:59:14.652Z,970.63
2019-02-19T02:00:14.549Z,970.61
2019-02-19T02:01:14.626Z,970.64
2019-02-19T02:02:14.631Z,970.66
2019-02-19T02:03:14.615Z,970.65
2019-02-19T02:04:14.624Z,970.69
2019-02-19T02:05:14.601Z,970.67
2019-02-19T02:06:14.585Z,970.71
2019-02-19T02:07:14.575Z,970.74
2019-02-19T02:08:14.586Z,970.66
2019-02-19T02:09:14.570Z,970.68
2019-02-19T02:10:14.553Z,970.79
2019-02-19T02:11:14.521Z,970.80
2019-02-19T02:12:14.516Z,970.74
2019-02-19T02:13:14.541Z,970.82
2019-02-19T02:14:14.493Z,970.79
2019-02-19T02:15:14.483Z,970.82
2019-02-19T02:16:14.478Z,970.78
2019-02-19T02:17:14.461Z,970.65
2019-02-19T02:18:14.450Z,970.72
2019-02-19T02:19:14.459Z,970.85
2019-02-19T02:20:14.421Z,970.73
2019-02-19T02:21:14.410Z,970.64
2019-02-19T02:22:14.410Z,970.74
2019-02-19T02:23:14.291Z,970.58
2019-02-19T02:24:14.404Z,970.60
2019-02-19T02:25:14.371Z,970.61
2019-02-19T02:26:14.369Z,970.55
2019-02-19T02:27:14.355Z,970.66
2019-02-19T02:28:14.332Z,970.63
2019-02-19T02:29:14.354Z,970.65
2019-02-19T02:30:14.315Z,970.71
2019-02-19T02:31:14.305Z,970.71
2019-02-19T02:32:14.295Z,970.59
2019-02-19T02:33:14.284Z,970.66
2019-02-19T02:34:14.275Z,970.75
2019-02-19T02:35:14.303Z,970.71
2019-02-19T02:36:14.255Z,970.75
2019-02-19T02:37:14.239Z,970.71
2019-02-19T02:38:14.224Z,970.75
2019-02-19T02:39:14.226Z,970.74
2019-02-19T02:40:14.206Z,970.79
2019-02-19T02:41:14.246Z,970.81
2019-02-19T02:42:14.183Z,970.77
2019-02-19T02:43:14.177Z,970.80
2019-02-19T02:44:14.155Z,970.83
2019-02-19T02:45:14.158Z,970.82
2019-02-19T02:46:14.149Z,970.89
2019-02-19T02:47:14.174Z,970.94
2019-02-19T02:48:14.173Z,970.93
2019-02-19T02:49:14.120Z,971.01
2019-02-19T02:50:14.093Z,971.01
2019-02-19T02:51:14.087Z,971.07
2019-02-19T02:52:14.078Z,971.07
2019-02-19T02:53:14.067Z,971.06
2019-02-19T02:54:14.119Z,971.07
2019-02-19T02:55:14.042Z,971.00
2019-02-19T02:56:14.028Z,971.03
2019-02-19T02:57:14.010Z,971.01
2019-02-19T02:58:14.003Z,971.01
2019-02-19T02:59:13.997Z,971.05
2019-02-19T03:00:14.054Z,971.06
2019-02-19T03:01:13.871Z,971.12
2019-02-19T03:02:13.965Z,971.11
2019-02-19T03:03:13.957Z,971.17
2019-02-19T03:04:13.948Z,971.17
2019-02-19T03:05:13.927Z,971.13
2019-02-19T03:06:13.962Z,971.17
2019-02-19T03:07:13.913Z,971.20
2019-02-19T03:08:13.895Z,971.22
2019-02-19T03:09:13.880Z,971.23
2019-02-19T03:10:13.877Z,971.27
2019-02-19T03:11:13.868Z,971.28
2019-02-19T03:12:13.903Z,971.30
2019-02-19T03:13:13.851Z,971.30
2019-02-19T03:14:13.850Z,971.27
2019-02-19T03:15:13.821Z,971.25
2019-02-19T03:16:13.836Z,971.30
2019-02-19T03:17:13.807Z,971.33
2019-02-19T03:18:13.809Z,971.37
2019-02-19T03:19:13.789Z,971.39
2019-02-19T03:20:13.766Z,971.34
2019-02-19T03:21:13.751Z,971.36
2019-02-19T03:22:13.760Z,971.29
2019-02-19T03:23:13.779Z,971.35
2019-02-19T03:24:13.735Z,971.33
2019-02-19T03:25:13.728Z,971.28
2019-02-19T03:26:13.737Z,971.33
2019-02-19T03:27:13.704Z,971.34
2019-02-19T03:28:13.680Z,971.35
2019-02-19T03:29:13.712Z,971.31
2019-02-19T03:30:13.655Z,971.30
2019-02-19T03:31:13.652Z,971.41
2019-02-19T03:32:13.625Z,971.35
2019-02-19T03:33:13.625Z,971.34
2019-02-19T03:34:13.620Z,971.29
2019-02-19T03:35:13.641Z,971.42
2019-02-19T03:36:13.590Z,971.29
2019-02-19T03:37:13.588Z,971.38
2019-02-19T03:38:13.581Z,971.45
2019-02-19T03:39:13.563Z,971.45
2019-02-19T03:40:13.559Z,971.43
2019-02-19T03:41:13.562Z,971.35
2019-02-19T03:42:13.431Z,971.39
2019-02-19T03:43:13.516Z,971.38
2019-02-19T03:44:13.503Z,971.28
2019-02-19T03:45:13.477Z,971.40
2019-02-19T03:46:13.525Z,971.38
2019-02-19T03:47:13.468Z,971.44
2019-02-19T03:48:13.454Z,971.46
2019-02-19T03:49:13.453Z,971.46
2019-02-19T03:50:13.338Z,971.43
2019-02-19T03:51:13.435Z,971.37
2019-02-19T03:52:13.475Z,971.35
2019-02-19T03:53:13.407Z,971.42
2019-02-19T03:54:13.303Z,971.46
2019-02-19T03:55:13.378Z,971.48
2019-02-19T03:56:13.372Z,971.53
2019-02-19T03:57:13.356Z,971.47
2019-02-19T03:58:13.381Z,971.47
2019-02-19T03:59:13.334Z,971.51
2019-02-19T04:00:13.327Z,971.51
2019-02-19T04:01:13.327Z,971.55
2019-02-19T04:02:13.303Z,971.53
2019-02-19T04:03:13.290Z,971.51
2019-02-19T04:04:13.312Z,971.52
2019-02-19T04:05:13.302Z,971.46
2019-02-19T04:06:13.258Z,971.56
2019-02-19T04:07:13.241Z,971.46
2019-02-19T04:08:13.237Z,971.50
2019-02-19T04:09:13.233Z,971.53
2019-02-19T04:10:13.208Z,971.50
2019-02-19T04:11:13.145Z,971.52
2019-02-19T04:12:13.819Z,971.56
2019-02-19T04:13:13.179Z,971.55
2019-02-19T04:14:13.074Z,971.55
2019-02-19T04:15:13.151Z,971.53
2019-02-19T04:16:21.096Z,971.50
2019-02-19T04:17:14.176Z,971.51
2019-02-19T04:18:13.148Z,971.48
2019-02-19T04:19:13.110Z,971.44
2019-02-19T04:20:13.116Z,971.46
2019-02-19T04:21:13.085Z,971.50
2019-02-19T04:22:13.097Z,971.48
2019-02-19T04:23:13.121Z,971.56
2019-02-19T04:24:13.051Z,971.52
2019-02-19T04:25:13.062Z,971.53
2019-02-19T04:26:14.099Z,971.46
2019-02-19T04:27:13.026Z,971.50
2019-02-19T04:28:13.016Z,971.50
2019-02-19T04:29:13.035Z,971.51
2019-02-19T04:30:12.995Z,971.56
2019-02-19T04:31:12.976Z,971.51
2019-02-19T04:32:12.977Z,971.56
2019-02-19T04:33:12.951Z,971.65
2019-02-19T04:34:12.990Z,971.61
2019-02-19T04:35:12.913Z,971.57
2019-02-19T04:36:12.922Z,971.52
2019-02-19T04:37:12.913Z,971.55
2019-02-19T04:38:12.900Z,971.53
2019-02-19T04:39:12.894Z,971.53
2019-02-19T04:40:12.911Z,971.54
2019-02-19T04:41:12.876Z,971.56
2019-02-19T04:42:12.862Z,971.56
2019-02-19T04:43:12.847Z,971.57
2019-02-19T04:44:12.830Z,971.57
2019-02-19T04:45:12.856Z,971.59
2019-02-19T04:46:12.820Z,971.57
2019-02-19T04:47:12.813Z,971.58
2019-02-19T04:48:12.791Z,971.59
2019-02-19T04:49:12.772Z,971.61
2019-02-19T04:50:12.760Z,971.57
2019-02-19T04:51:12.785Z,971.57
2019-02-19T04:52:12.741Z,971.62
2019-02-19T04:53:12.733Z,971.62
2019-02-19T04:54:12.731Z,971.49
2019-02-19T04:55:12.725Z,971.63
2019-02-19T04:56:12.756Z,971.56
2019-02-19T04:57:12.704Z,971.52
2019-02-19T04:58:12.694Z,971.55
2019-02-19T04:59:12.665Z,971.53
2019-02-19T05:00:12.650Z,971.59
2019-02-19T05:01:12.653Z,971.58
2019-02-19T05:02:12.685Z,971.67
2019-02-19T05:03:12.632Z,971.64
2019-02-19T05:04:12.612Z,971.68
2019-02-19T05:05:12.601Z,971.69
2019-02-19T05:06:12.595Z,971.65
2019-02-19T05:07:12.586Z,971.63
2019-02-19T05:08:12.597Z,971.64
2019-02-19T05:09:12.602Z,971.67
2019-02-19T05:10:12.548Z,971.62
2019-02-19T05:11:12.496Z,971.60
2019-02-19T05:12:12.531Z,971.62
2019-02-19T05:13:12.506Z,971.66
2019-02-19T05:14:12.544Z,971.58
2019-02-19T05:15:12.457Z,971.63
2019-02-19T05:16:12.486Z,971.64
2019-02-19T05:17:12.509Z,971.68
2019-02-19T05:18:12.450Z,971.66
2019-02-19T05:19:12.472Z,971.74
2019-02-19T05:20:12.470Z,971.58
2019-02-19T05:21:12.435Z,971.60
2019-02-19T05:22:12.437Z,971.59
2019-02-19T05:23:12.393Z,971.62
2019-02-19T05:24:12.413Z,971.66
2019-02-19T05:25:12.388Z,971.74
2019-02-19T05:26:12.414Z,971.68
2019-02-19T05:27:12.380Z,971.76
2019-02-19T05:28:12.358Z,971.65
2019-02-19T05:29:12.346Z,971.65
2019-02-19T05:30:12.342Z,971.67
2019-02-19T05:31:12.314Z,971.68
2019-02-19T05:32:12.336Z,971.73
2019-02-19T05:33:12.331Z,971.73
2019-02-19T05:34:12.286Z,971.73
2019-02-19T05:35:12.269Z,971.73
2019-02-19T05:36:12.265Z,971.74
2019-02-19T05:37:12.251Z,971.79
2019-02-19T05:38:12.231Z,971.79
2019-02-19T05:39:12.266Z,971.77
2019-02-19T05:40:12.220Z,971.73
2019-02-19T05:41:12.203Z,971.81
2019-02-19T05:42:12.197Z,971.87
2019-02-19T05:43:12.188Z,971.80
2019-02-19T05:44:12.172Z,971.81
2019-02-19T05:45:12.191Z,971.82
2019-02-19T05:46:12.183Z,971.82
2019-02-19T05:47:12.096Z,971.91
2019-02-19T05:48:12.125Z,971.84
2019-02-19T05:49:12.112Z,971.87
2019-02-19T05:50:12.110Z,971.91
2019-02-19T05:51:12.043Z,971.91
2019-02-19T05:52:12.084Z,971.93
2019-02-19T05:53:12.075Z,971.94
2019-02-19T05:54:12.066Z,971.96
2019-02-19T05:55:12.061Z,971.98
2019-02-19T05:56:12.032Z,972.04
2019-02-19T05:57:12.063Z,972.05
2019-02-19T05:58:12.021Z,972.02
2019-02-19T05:59:12.010Z,972.05
2019-02-19T06:00:11.997Z,972.03
2019-02-19T06:01:11.990Z,972.07
2019-02-19T06:02:12.008Z,972.05
2019-02-19T06:03:11.977Z,972.02
2019-02-19T06:04:11.945Z,972.08
2019-02-19T06:05:11.958Z,972.12
2019-02-19T06:06:11.928Z,972.09
2019-02-19T06:07:11.913Z,972.10
2019-02-19T06:08:11.936Z,972.07
2019-02-19T06:09:11.888Z,972.13
2019-02-19T06:10:11.886Z,972.17
2019-02-19T06:11:11.890Z,972.06
2019-02-19T06:12:11.863Z,972.08
2019-02-19T06:13:11.877Z,972.21
2019-02-19T06:14:11.846Z,972.21
2019-02-19T06:15:11.823Z,972.23
2019-02-19T06:16:11.820Z,972.19
2019-02-19T06:17:11.802Z,972.13
2019-02-19T06:18:11.834Z,972.15
2019-02-19T06:19:11.772Z,972.24
2019-02-19T06:20:11.775Z,972.22
2019-02-19T06:21:11.770Z,972.24
2019-02-19T06:22:11.756Z,972.23
2019-02-19T06:23:11.748Z,972.26
2019-02-19T06:24:11.761Z,972.16
2019-02-19T06:25:11.727Z,972.15
2019-02-19T06:26:11.718Z,972.27
2019-02-19T06:27:11.692Z,972.32
2019-02-19T06:28:11.726Z,972.43
2019-02-19T06:29:11.670Z,972.43
2019-02-19T06:30:11.672Z,972.44
2019-02-19T06:31:11.640Z,972.33
2019-02-19T06:32:11.536Z,972.34
2019-02-19T06:33:11.648Z,972.38
2019-02-19T06:34:11.641Z,972.37
2019-02-19T06:35:11.625Z,972.47
2019-02-19T06:36:11.611Z,972.45
2019-02-19T06:37:11.592Z,972.47
2019-02-19T06:38:11.570Z,972.61
2019-02-19T06:39:11.593Z,972.56
2019-02-19T06:40:11.555Z,972.52
2019-02-19T06:41:11.544Z,972.60
2019-02-19T06:42:11.531Z,972.63
2019-02-19T06:43:11.515Z,972.66
2019-02-19T06:44:11.503Z,972.67
2019-02-19T06:45:11.534Z,972.62
2019-02-19T06:46:11.503Z,972.70
2019-02-19T06:47:12.714Z,972.74
2019-02-19T06:48:11.466Z,972.72
2019-02-19T06:49:11.358Z,972.80
2019-02-19T06:50:11.476Z,972.77
2019-02-19T06:51:11.428Z,972.79
2019-02-19T06:52:11.439Z,972.85
2019-02-19T06:53:11.307Z,972.83
2019-02-19T06:54:11.310Z,972.84
2019-02-19T06:55:11.341Z,972.88
2019-02-19T06:56:11.370Z,972.86
2019-02-19T06:57:11.263Z,972.83
2019-02-19T06:58:11.263Z,972.82
2019-02-19T06:59:11.243Z,972.78
2019-02-19T07:00:11.246Z,972.85
2019-02-19T07:01:11.267Z,972.88
2019-02-19T07:02:11.315Z,972.86
2019-02-19T07:03:11.192Z,972.86
2019-02-19T07:04:11.269Z,972.83
2019-02-19T07:05:11.186Z,972.83
2019-02-19T07:06:11.275Z,972.93
2019-02-19T07:07:11.195Z,972.89
2019-02-19T07:08:11.148Z,972.93
2019-02-19T07:09:11.130Z,972.88
2019-02-19T07:10:11.160Z,972.85
2019-02-19T07:11:11.100Z,972.84
2019-02-19T07:12:11.097Z,972.90
2019-02-19T07:13:11.150Z,972.88
2019-02-19T07:14:11.072Z,972.94
2019-02-19T07:15:11.072Z,972.86
2019-02-19T07:16:11.051Z,972.90
2019-02-19T07:17:15.648Z,972.94
2019-02-19T07:18:12.050Z,972.95
2019-02-19T07:19:11.065Z,972.98
2019-02-19T07:20:11.002Z,973.00
2019-02-19T07:21:11.006Z,973.02
2019-02-19T07:22:10.991Z,972.93
2019-02-19T07:23:10.983Z,973.01
2019-02-19T07:24:10.966Z,972.92
2019-02-19T07:25:10.991Z,972.91
2019-02-19T07:26:11.042Z,972.90
2019-02-19T07:27:11.034Z,972.96
2019-02-19T07:28:11.014Z,972.89
2019-02-19T07:29:11.004Z,972.95
2019-02-19T07:30:10.942Z,972.89
2019-02-19T07:31:10.888Z,972.94
2019-02-19T07:32:10.872Z,972.95
2019-02-19T07:33:10.861Z,972.94
2019-02-19T07:34:10.845Z,972.94
2019-02-19T07:35:10.845Z,972.98
2019-02-19T07:36:10.870Z,973.05
2019-02-19T07:37:10.826Z,972.97
2019-02-19T07:38:10.819Z,973.04
2019-02-19T07:39:10.798Z,973.01
2019-02-19T07:40:10.803Z,972.99
2019-02-19T07:41:10.790Z,972.98
2019-02-19T07:42:10.890Z,972.93
2019-02-19T07:43:10.860Z,972.97
2019-02-19T07:44:10.741Z,972.93
2019-02-19T07:45:10.830Z,972.98
2019-02-19T07:46:10.861Z,972.96
2019-02-19T07:47:10.825Z,973.03
2019-02-19T07:48:10.702Z,973.01
2019-02-19T07:49:10.701Z,972.96
2019-02-19T07:50:10.684Z,972.97
2019-02-19T07:51:10.682Z,972.93
2019-02-19T07:52:10.800Z,972.97
2019-02-19T07:53:10.675Z,972.97
2019-02-19T07:54:10.634Z,972.99
2019-02-19T07:55:10.621Z,972.95
2019-02-19T07:56:10.666Z,972.96
2019-02-19T07:57:10.656Z,972.96
2019-02-19T07:58:10.689Z,972.90
2019-02-19T07:59:10.572Z,972.93
2019-02-19T08:00:10.561Z,972.92
2019-02-19T08:01:10.557Z,972.96
2019-02-19T08:02:10.636Z,972.98
2019-02-19T08:03:10.669Z,972.99
2019-02-19T08:04:10.537Z,973.02
2019-02-19T08:05:10.617Z,972.96
2019-02-19T08:06:10.606Z,973.02
2019-02-19T08:07:10.616Z,973.02
2019-02-19T08:08:10.582Z,973.01
2019-02-19T08:09:10.616Z,973.08
2019-02-19T08:10:10.552Z,973.09
2019-02-19T08:11:10.545Z,973.05
2019-02-19T08:12:10.531Z,972.99
2019-02-19T08:13:10.535Z,973.02
2019-02-19T08:14:10.514Z,973.06
2019-02-19T08:15:10.555Z,973.04
2019-02-19T08:16:10.497Z,972.98
2019-02-19T08:17:10.483Z,973.09
2019-02-19T08:18:10.376Z,973.10
2019-02-19T08:19:10.344Z,973.07
2019-02-19T08:20:15.728Z,973.04
2019-02-19T08:21:11.479Z,973.06
2019-02-19T08:22:10.325Z,973.10
2019-02-19T08:23:10.305Z,973.06
2019-02-19T08:24:10.402Z,973.13
2019-02-19T08:25:10.394Z,973.12
2019-02-19T08:26:10.386Z,973.05
2019-02-19T08:27:10.319Z,973.08
2019-02-19T08:28:10.273Z,973.09
2019-02-19T08:29:13.690Z,973.09
2019-02-19T08:30:11.171Z,973.07
2019-02-19T08:31:10.241Z,973.05
2019-02-19T08:32:10.320Z,973.09
2019-02-19T08:33:10.349Z,973.10
2019-02-19T08:34:10.295Z,973.13
2019-02-19T08:35:10.318Z,973.11
2019-02-19T08:36:10.294Z,973.08
2019-02-19T08:37:10.271Z,973.11
2019-02-19T08:38:10.270Z,973.08
2019-02-19T08:39:10.294Z,973.12
2019-02-19T08:40:10.232Z,973.05
2019-02-19T08:41:10.232Z,973.06
2019-02-19T08:42:10.227Z,973.06
2019-02-19T08:43:10.202Z,973.03
2019-02-19T08:44:10.179Z,973.03
2019-02-19T08:45:10.244Z,973.04
2019-02-19T08:46:10.168Z,973.10
2019-02-19T08:47:10.165Z,973.07
2019-02-19T08:48:10.168Z,973.04
2019-02-19T08:49:10.129Z,973.01
2019-02-19T08:50:10.124Z,973.03
2019-02-19T08:51:10.156Z,973.09
2019-02-19T08:52:10.095Z,972.99
2019-02-19T08:53:10.101Z,972.97
2019-02-19T08:54:10.075Z,972.96
2019-02-19T08:55:10.064Z,972.98
2019-02-19T08:56:10.057Z,972.95
2019-02-19T08:57:10.081Z,972.97
2019-02-19T08:58:10.025Z,973.01
2019-02-19T08:59:10.022Z,972.98
2019-02-19T09:00:10.017Z,973.02
2019-02-19T09:01:10.029Z,973.03
2019-02-19T09:02:10.016Z,973.08
2019-02-19T09:03:09.982Z,973.06
2019-02-19T09:04:09.970Z,973.10
2019-02-19T09:05:09.991Z,973.10
2019-02-19T09:06:10.000Z,973.08
2019-02-19T09:07:09.977Z,973.06
2019-02-19T09:08:09.918Z,973.09
2019-02-19T09:09:09.908Z,973.04
2019-02-19T09:10:09.918Z,973.11
2019-02-19T09:11:09.936Z,973.07
2019-02-19T09:12:11.518Z,973.04
2019-02-19T09:13:09.903Z,973.03
2019-02-19T09:14:09.859Z,973.01
2019-02-19T09:15:11.201Z,972.98
2019-02-19T09:16:09.845Z,973.03
2019-02-19T09:17:09.825Z,972.97
2019-02-19T09:18:09.802Z,973.02
2019-02-19T09:19:09.846Z,973.02
2019-02-19T09:20:09.799Z,973.03
2019-02-19T09:21:09.785Z,972.96
2019-02-19T09:22:09.764Z,973.01
2019-02-19T09:23:09.753Z,973.00
2019-02-19T09:24:09.919Z,972.97
2019-02-19T09:25:09.760Z,972.97
2019-02-19T09:26:09.719Z,972.99
2019-02-19T09:27:09.717Z,972.96
2019-02-19T09:28:09.697Z,972.98
2019-02-19T09:29:09.739Z,972.97
2019-02-19T09:30:09.693Z,972.99
2019-02-19T09:31:09.669Z,972.99
2019-02-19T09:32:09.660Z,972.99
2019-02-19T09:33:09.650Z,972.97
2019-02-19T09:34:09.635Z,972.96
2019-02-19T09:35:09.663Z,972.98
2019-02-19T09:36:09.617Z,972.97
2019-02-19T09:37:09.602Z,972.94
2019-02-19T09:38:09.588Z,972.96
2019-02-19T09:39:09.595Z,972.96
2019-02-19T09:40:09.600Z,972.94
2019-02-19T09:41:09.605Z,972.91
2019-02-19T09:42:09.555Z,972.90
2019-02-19T09:43:09.532Z,972.97
2019-02-19T09:44:09.532Z,972.96
2019-02-19T09:45:09.522Z,972.94
2019-02-19T09:46:09.506Z,972.95
2019-02-19T09:47:09.520Z,972.94
2019-02-19T09:48:09.473Z,972.91
2019-02-19T09:49:09.500Z,972.90
2019-02-19T09:50:09.454Z,972.85
2019-02-19T09:51:09.446Z,972.80
2019-02-19T09:52:09.422Z,972.81
2019-02-19T09:53:09.424Z,972.80
2019-02-19T09:54:09.450Z,972.84
2019-02-19T09:55:09.396Z,972.88
2019-02-19T09:56:09.382Z,972.93
2019-02-19T09:57:09.376Z,972.86
2019-02-19T09:58:09.370Z,972.80
2019-02-19T09:59:09.368Z,972.84
2019-02-19T10:00:09.380Z,972.89
2019-02-19T10:01:09.329Z,972.86
2019-02-19T10:02:09.321Z,972.85
2019-02-19T10:03:09.313Z,972.80
2019-02-19T10:04:09.311Z,972.76
2019-02-19T10:05:09.334Z,972.77
2019-02-19T10:06:09.276Z,972.80
2019-02-19T10:07:09.268Z,972.82
2019-02-19T10:08:09.251Z,972.82
2019-02-19T10:09:09.247Z,972.81
2019-02-19T10:10:09.232Z,972.77
2019-02-19T10:11:09.257Z,972.74
2019-02-19T10:12:09.199Z,972.73
2019-02-19T10:13:09.192Z,972.70
2019-02-19T10:14:09.186Z,972.68
2019-02-19T10:15:09.182Z,972.72
2019-02-19T10:16:09.198Z,972.75
2019-02-19T10:17:09.148Z,972.77
2019-02-19T10:18:10.550Z,972.74
2019-02-19T10:19:09.130Z,972.72
2019-02-19T10:20:09.210Z,972.75
2019-02-19T10:21:09.253Z,972.76
2019-02-19T10:22:09.095Z,972.75
2019-02-19T10:23:09.089Z,972.73
2019-02-19T10:24:09.075Z,972.76
2019-02-19T10:25:09.071Z,972.73
2019-02-19T10:26:09.051Z,972.74
2019-02-19T10:27:09.090Z,972.73
2019-02-19T10:28:09.033Z,972.65
2019-02-19T10:29:09.022Z,972.61
2019-02-19T10:30:09.020Z,972.61
2019-02-19T10:31:09.003Z,972.57
2019-02-19T10:32:08.981Z,972.62
2019-02-19T10:33:09.016Z,972.64
2019-02-19T10:34:08.966Z,972.66
2019-02-19T10:35:08.951Z,972.62
2019-02-19T10:36:08.924Z,972.55
2019-02-19T10:37:08.963Z,972.58
2019-02-19T10:38:08.921Z,972.60
2019-02-19T10:39:08.909Z,972.55
2019-02-19T10:40:08.890Z,972.57
2019-02-19T10:41:08.900Z,972.48
2019-02-19T10:42:08.941Z,972.57
2019-02-19T10:43:08.880Z,972.52
2019-02-19T10:44:08.852Z,972.51
2019-02-19T10:45:08.844Z,972.49
2019-02-19T10:46:08.835Z,972.51
2019-02-19T10:47:08.822Z,972.49
2019-02-19T10:48:08.853Z,972.47
2019-02-19T10:49:08.810Z,972.47
2019-02-19T10:50:08.790Z,972.46
2019-02-19T10:51:08.782Z,972.49
2019-02-19T10:52:08.771Z,972.52
2019-02-19T10:53:08.775Z,972.43
2019-02-19T10:54:08.787Z,972.42
2019-02-19T10:55:08.733Z,972.48
2019-02-19T10:56:08.710Z,972.41
2019-02-19T10:57:08.718Z,972.36
2019-02-19T10:58:08.701Z,972.39
2019-02-19T10:59:08.694Z,972.39
2019-02-19T11:00:08.728Z,972.40
2019-02-19T11:01:08.674Z,972.23
2019-02-19T11:02:08.652Z,972.29
2019-02-19T11:03:08.648Z,972.31
2019-02-19T11:04:08.681Z,972.26
2019-02-19T11:05:08.627Z,972.24
2019-02-19T11:06:08.637Z,972.18
2019-02-19T11:07:08.603Z,972.21
2019-02-19T11:08:08.587Z,972.16
2019-02-19T11:09:08.611Z,972.18
2019-02-19T11:10:08.574Z,972.21
2019-02-19T11:11:08.557Z,972.21
2019-02-19T11:12:08.549Z,972.20
2019-02-19T11:13:08.532Z,972.25
2019-02-19T11:14:08.574Z,972.24
2019-02-19T11:15:08.519Z,972.22
2019-02-19T11:16:08.507Z,972.16
2019-02-19T11:17:08.492Z,972.19
2019-02-19T11:18:08.479Z,972.11
2019-02-19T11:19:08.469Z,972.13
2019-02-19T11:20:08.504Z,972.09
2019-02-19T11:21:08.471Z,972.11
2019-02-19T11:22:08.454Z,972.10
2019-02-19T11:23:08.432Z,972.13
2019-02-19T11:24:08.431Z,972.16
2019-02-19T11:25:08.439Z,972.01
2019-02-19T11:26:08.467Z,972.04
2019-02-19T11:27:08.380Z,972.09
2019-02-19T11:28:08.397Z,972.07
2019-02-19T11:29:08.394Z,972.03
2019-02-19T11:30:09.195Z,972.06
2019-02-19T11:31:08.339Z,972.02
2019-02-19T11:32:08.334Z,972.06
2019-02-19T11:33:08.320Z,972.03
2019-02-19T11:34:08.329Z,972.00
2019-02-19T11:35:08.291Z,971.94
2019-02-19T11:36:08.341Z,971.86
2019-02-19T11:37:08.272Z,971.90
2019-02-19T11:38:08.264Z,971.92
2019-02-19T11:39:08.256Z,971.92
2019-02-19T11:40:08.254Z,971.88
2019-02-19T11:41:08.288Z,971.90
2019-02-19T11:42:08.254Z,971.82
2019-02-19T11:43:08.221Z,971.90
2019-02-19T11:44:08.204Z,971.90
2019-02-19T11:45:08.189Z,971.82
2019-02-19T11:46:08.182Z,971.82
2019-02-19T11:47:08.207Z,971.76
2019-02-19T11:48:08.161Z,971.75
2019-02-19T11:49:08.145Z,971.76
2019-02-19T11:50:08.159Z,971.77
2019-02-19T11:51:08.124Z,971.74
2019-02-19T11:52:08.174Z,971.81
2019-02-19T11:53:08.124Z,971.67
2019-02-19T11:54:08.094Z,971.72
2019-02-19T11:55:08.083Z,971.69
2019-02-19T11:56:08.084Z,971.65
2019-02-19T11:57:08.067Z,971.64
2019-02-19T11:58:08.083Z,971.72
2019-02-19T11:59:08.787Z,971.64
2019-02-19T12:00:08.032Z,971.62
2019-02-19T12:01:08.041Z,971.70
2019-02-19T12:02:08.053Z,971.74
2019-02-19T12:03:08.010Z,971.65
2019-02-19T12:04:07.985Z,971.64
2019-02-19T12:05:07.971Z,971.62
2019-02-19T12:06:07.964Z,971.60
2019-02-19T12:07:08.055Z,971.61
2019-02-19T12:08:07.999Z,971.63
2019-02-19T12:09:07.972Z,971.58
2019-02-19T12:10:07.932Z,971.58
2019-02-19T12:11:07.932Z,971.60
2019-02-19T12:12:07.904Z,971.60
2019-02-19T12:13:07.897Z,971.58
2019-02-19T12:14:07.921Z,971.60
2019-02-19T12:15:07.872Z,971.59
2019-02-19T12:16:07.855Z,971.55
2019-02-19T12:17:07.840Z,971.58
2019-02-19T12:18:07.873Z,971.57
2019-02-19T12:19:07.829Z,971.60
2019-02-19T12:20:07.818Z,971.61
2019-02-19T12:21:08.393Z,971.54
2019-02-19T12:22:07.791Z,971.60
2019-02-19T12:23:07.960Z,971.47
2019-02-19T12:24:07.774Z,971.55
2019-02-19T12:25:07.767Z,971.54
2019-02-19T12:26:07.747Z,971.46
2019-02-19T12:27:08.949Z,971.55
2019-02-19T12:28:07.723Z,971.50